sensor_id;sensor_type;location;lat;lon;timestamp;P1;durP1;ratioP1;P2;durP2;ratioP2
14121;SDS011;7139;48.114;11.442;2023-02-01T00:01:47;5.37;;;3.07;;
14121;SDS011;7139;48.114;11.442;2023-02-01T00:04:14;4.00;;;3.20;;
14121;SDS011;7139;48.114;11.442;2023-02-01T00:06:40;4.93;;;3.53;;
14121;SDS011;7139;48.114;11.442;2023-02-01T00:09:07;4.43;;;3.20;;
14121;SDS011;7139;48.114;11.442;2023-02-01T00:11:35;3.67;;;3.10;;
14121;SDS011;7139;48.114;11.442;2023-02-01T00:14:02;4.13;;;3.40;;
14121;SDS011;7139;48.114;11.442;2023-02-01T00:16:29;3.77;;;3.00;;
14121;SDS011;7139;48.114;11.442;2023-02-01T00:18:57;4.67;;;2.87;;
14121;SDS011;7139;48.114;11.442;2023-02-01T00:21:26;3.27;;;2.97;;
14121;SDS011;7139;48.114;11.442;2023-02-01T00:23:53;4.73;;;2.93;;
14121;SDS011;7139;48.114;11.442;2023-02-01T00:26:21;3.93;;;2.90;;
14121;SDS011;7139;48.114;11.442;2023-02-01T00:28:53;3.40;;;3.03;;
14121;SDS011;7139;48.114;11.442;2023-02-01T00:31:19;4.37;;;3.27;;
14121;SDS011;7139;48.114;11.442;2023-02-01T00:33:47;4.03;;;2.90;;
14121;SDS011;7139;48.114;11.442;2023-02-01T00:36:14;3.40;;;3.00;;
14121;SDS011;7139;48.114;11.442;2023-02-01T00:38:41;3.13;;;2.83;;
14121;SDS011;7139;48.114;11.442;2023-02-01T00:41:10;3.70;;;3.30;;
14121;SDS011;7139;48.114;11.442;2023-02-01T00:43:38;6.10;;;3.20;;
14121;SDS011;7139;48.114;11.442;2023-02-01T00:46:07;3.70;;;3.20;;
14121;SDS011;7139;48.114;11.442;2023-02-01T00:48:34;4.80;;;3.40;;
14121;SDS011;7139;48.114;11.442;2023-02-01T00:51:01;4.30;;;3.90;;
14121;SDS011;7139;48.114;11.442;2023-02-01T00:53:29;5.43;;;4.00;;
14121;SDS011;7139;48.114;11.442;2023-02-01T00:55:56;4.87;;;4.00;;
14121;SDS011;7139;48.114;11.442;2023-02-01T00:58:23;4.47;;;4.07;;
14121;SDS011;7139;48.114;11.442;2023-02-01T01:00:56;4.93;;;3.80;;
14121;SDS011;7139;48.114;11.442;2023-02-01T01:03:28;4.17;;;3.70;;
14121;SDS011;7139;48.114;11.442;2023-02-01T01:05:58;4.43;;;4.03;;
14121;SDS011;7139;48.114;11.442;2023-02-01T01:08:26;4.57;;;4.07;;
14121;SDS011;7139;48.114;11.442;2023-02-01T01:10:52;5.40;;;4.27;;
14121;SDS011;7139;48.114;11.442;2023-02-01T01:13:20;4.50;;;3.53;;
14121;SDS011;7139;48.114;11.442;2023-02-01T01:15:47;6.10;;;4.60;;
14121;SDS011;7139;48.114;11.442;2023-02-01T01:18:13;5.00;;;3.90;;
14121;SDS011;7139;48.114;11.442;2023-02-01T01:20:41;5.03;;;4.27;;
14121;SDS011;7139;48.114;11.442;2023-02-01T01:23:08;4.93;;;4.40;;
14121;SDS011;7139;48.114;11.442;2023-02-01T01:25:36;5.70;;;4.23;;
14121;SDS011;7139;48.114;11.442;2023-02-01T01:28:04;6.33;;;4.70;;
14121;SDS011;7139;48.114;11.442;2023-02-01T01:30:31;5.40;;;4.67;;
14121;SDS011;7139;48.114;11.442;2023-02-01T01:32:59;5.47;;;4.37;;
14121;SDS011;7139;48.114;11.442;2023-02-01T01:35:26;6.63;;;4.90;;
14121;SDS011;7139;48.114;11.442;2023-02-01T01:37:56;5.00;;;4.43;;
14121;SDS011;7139;48.114;11.442;2023-02-01T01:40:23;6.27;;;4.60;;
14121;SDS011;7139;48.114;11.442;2023-02-01T01:42:50;5.37;;;4.60;;
14121;SDS011;7139;48.114;11.442;2023-02-01T01:45:20;6.17;;;5.13;;
14121;SDS011;7139;48.114;11.442;2023-02-01T01:47:50;6.47;;;5.60;;
14121;SDS011;7139;48.114;11.442;2023-02-01T01:50:20;6.47;;;5.13;;
14121;SDS011;7139;48.114;11.442;2023-02-01T01:52:50;6.80;;;5.93;;
14121;SDS011;7139;48.114;11.442;2023-02-01T01:55:21;7.43;;;5.93;;
14121;SDS011;7139;48.114;11.442;2023-02-01T01:57:52;7.90;;;6.17;;
14121;SDS011;7139;48.114;11.442;2023-02-01T02:00:23;7.87;;;5.87;;
14121;SDS011;7139;48.114;11.442;2023-02-01T02:02:52;6.50;;;5.63;;
14121;SDS011;7139;48.114;11.442;2023-02-01T02:05:22;8.40;;;6.37;;
14121;SDS011;7139;48.114;11.442;2023-02-01T02:07:50;6.97;;;6.27;;
14121;SDS011;7139;48.114;11.442;2023-02-01T02:10:19;7.57;;;5.60;;
14121;SDS011;7139;48.114;11.442;2023-02-01T02:13:07;7.03;;;5.60;;
14121;SDS011;7139;48.114;11.442;2023-02-01T02:15:35;7.17;;;5.87;;
14121;SDS011;7139;48.114;11.442;2023-02-01T02:18:07;6.67;;;5.83;;
14121;SDS011;7139;48.114;11.442;2023-02-01T02:20:52;6.77;;;5.90;;
14121;SDS011;7139;48.114;11.442;2023-02-01T02:23:37;6.13;;;5.40;;
14121;SDS011;7139;48.114;11.442;2023-02-01T02:32:53;7.10;;;5.80;;
14121;SDS011;7139;48.114;11.442;2023-02-01T02:35:48;8.07;;;5.90;;
14121;SDS011;7139;48.114;11.442;2023-02-01T02:38:23;5.90;;;5.30;;
14121;SDS011;7139;48.114;11.442;2023-02-01T02:41:00;6.57;;;5.27;;
14121;SDS011;7139;48.114;11.442;2023-02-01T02:43:41;6.73;;;5.33;;
14121;SDS011;7139;48.114;11.442;2023-02-01T02:46:32;6.90;;;6.00;;
14121;SDS011;7139;48.114;11.442;2023-02-01T02:49:23;5.90;;;5.30;;
14121;SDS011;7139;48.114;11.442;2023-02-01T02:51:58;6.47;;;5.07;;
14121;SDS011;7139;48.114;11.442;2023-02-01T02:54:46;6.03;;;5.43;;
14121;SDS011;7139;48.114;11.442;2023-02-01T02:57:18;7.13;;;5.37;;
14121;SDS011;7139;48.114;11.442;2023-02-01T03:00:05;6.23;;;5.13;;
14121;SDS011;7139;48.114;11.442;2023-02-01T03:02:53;5.80;;;5.20;;
14121;SDS011;7139;48.114;11.442;2023-02-01T03:05:41;6.00;;;5.37;;
14121;SDS011;7139;48.114;11.442;2023-02-01T03:08:10;5.53;;;4.90;;
14121;SDS011;7139;48.114;11.442;2023-02-01T03:10:41;5.97;;;5.33;;
14121;SDS011;7139;48.114;11.442;2023-02-01T03:13:17;5.23;;;4.70;;
14121;SDS011;7139;48.114;11.442;2023-02-01T03:15:51;5.93;;;5.00;;
14121;SDS011;7139;48.114;11.442;2023-02-01T03:18:25;5.23;;;4.73;;
14121;SDS011;7139;48.114;11.442;2023-02-01T03:20:57;7.10;;;5.63;;
14121;SDS011;7139;48.114;11.442;2023-02-01T03:23:29;5.20;;;4.70;;
14121;SDS011;7139;48.114;11.442;2023-02-01T03:25:59;5.13;;;4.63;;
14121;SDS011;7139;48.114;11.442;2023-02-01T03:28:28;5.30;;;4.80;;
14121;SDS011;7139;48.114;11.442;2023-02-01T03:30:57;5.17;;;4.67;;
14121;SDS011;7139;48.114;11.442;2023-02-01T03:33:25;4.83;;;4.33;;
14121;SDS011;7139;48.114;11.442;2023-02-01T03:35:59;5.13;;;4.63;;
14121;SDS011;7139;48.114;11.442;2023-02-01T03:38:32;5.20;;;4.70;;
14121;SDS011;7139;48.114;11.442;2023-02-01T03:41:06;5.60;;;5.00;;
14121;SDS011;7139;48.114;11.442;2023-02-01T03:43:40;5.67;;;4.83;;
14121;SDS011;7139;48.114;11.442;2023-02-01T03:46:17;4.83;;;4.33;;
14121;SDS011;7139;48.114;11.442;2023-02-01T03:48:49;5.37;;;4.80;;
14121;SDS011;7139;48.114;11.442;2023-02-01T03:51:19;6.63;;;4.93;;
14121;SDS011;7139;48.114;11.442;2023-02-01T03:53:47;4.70;;;4.07;;
14121;SDS011;7139;48.114;11.442;2023-02-01T03:56:15;5.50;;;5.00;;
14121;SDS011;7139;48.114;11.442;2023-02-01T03:58:44;5.23;;;4.47;;
14121;SDS011;7139;48.114;11.442;2023-02-01T04:01:24;5.17;;;4.27;;
14121;SDS011;7139;48.114;11.442;2023-02-01T04:03:51;5.47;;;4.27;;
14121;SDS011;7139;48.114;11.442;2023-02-01T04:06:19;5.10;;;4.57;;
14121;SDS011;7139;48.114;11.442;2023-02-01T04:08:46;4.83;;;4.27;;
14121;SDS011;7139;48.114;11.442;2023-02-01T04:11:13;6.03;;;4.80;;
14121;SDS011;7139;48.114;11.442;2023-02-01T04:13:40;5.30;;;4.40;;
14121;SDS011;7139;48.114;11.442;2023-02-01T04:16:06;5.43;;;4.80;;
14121;SDS011;7139;48.114;11.442;2023-02-01T04:18:33;5.70;;;4.57;;
14121;SDS011;7139;48.114;11.442;2023-02-01T04:21:00;5.47;;;4.93;;
14121;SDS011;7139;48.114;11.442;2023-02-01T04:23:29;5.53;;;4.97;;
14121;SDS011;7139;48.114;11.442;2023-02-01T04:25:58;5.73;;;4.73;;
14121;SDS011;7139;48.114;11.442;2023-02-01T04:28:26;5.33;;;4.83;;
14121;SDS011;7139;48.114;11.442;2023-02-01T04:30:53;5.63;;;4.63;;
14121;SDS011;7139;48.114;11.442;2023-02-01T04:33:19;5.40;;;4.70;;
14121;SDS011;7139;48.114;11.442;2023-02-01T04:35:46;7.03;;;4.83;;
14121;SDS011;7139;48.114;11.442;2023-02-01T04:38:13;6.07;;;4.80;;
14121;SDS011;7139;48.114;11.442;2023-02-01T04:40:41;6.10;;;4.97;;
14121;SDS011;7139;48.114;11.442;2023-02-01T04:43:08;6.00;;;5.30;;
14121;SDS011;7139;48.114;11.442;2023-02-01T04:45:35;6.10;;;5.43;;
14121;SDS011;7139;48.114;11.442;2023-02-01T04:48:02;6.00;;;5.13;;
14121;SDS011;7139;48.114;11.442;2023-02-01T04:50:29;5.73;;;4.40;;
14121;SDS011;7139;48.114;11.442;2023-02-01T04:52:56;5.07;;;4.57;;
14121;SDS011;7139;48.114;11.442;2023-02-01T04:55:22;5.63;;;4.80;;
14121;SDS011;7139;48.114;11.442;2023-02-01T04:57:50;5.63;;;5.13;;
14121;SDS011;7139;48.114;11.442;2023-02-01T05:00:17;6.30;;;4.97;;
14121;SDS011;7139;48.114;11.442;2023-02-01T05:02:44;5.53;;;4.70;;
14121;SDS011;7139;48.114;11.442;2023-02-01T05:05:11;6.73;;;5.43;;
14121;SDS011;7139;48.114;11.442;2023-02-01T05:07:38;5.57;;;5.07;;
14121;SDS011;7139;48.114;11.442;2023-02-01T05:10:05;5.37;;;4.73;;
14121;SDS011;7139;48.114;11.442;2023-02-01T05:12:32;6.27;;;5.00;;
14121;SDS011;7139;48.114;11.442;2023-02-01T05:15:18;6.17;;;5.50;;
14121;SDS011;7139;48.114;11.442;2023-02-01T05:17:44;5.60;;;5.10;;
14121;SDS011;7139;48.114;11.442;2023-02-01T05:20:11;5.90;;;5.30;;
14121;SDS011;7139;48.114;11.442;2023-02-01T05:22:38;5.60;;;4.77;;
14121;SDS011;7139;48.114;11.442;2023-02-01T05:25:05;6.57;;;5.10;;
14121;SDS011;7139;48.114;11.442;2023-02-01T05:27:32;6.17;;;5.10;;
14121;SDS011;7139;48.114;11.442;2023-02-01T05:29:59;6.17;;;5.10;;
14121;SDS011;7139;48.114;11.442;2023-02-01T05:32:27;5.73;;;4.93;;
14121;SDS011;7139;48.114;11.442;2023-02-01T05:34:53;7.27;;;5.40;;
14121;SDS011;7139;48.114;11.442;2023-02-01T05:37:20;6.37;;;5.10;;
14121;SDS011;7139;48.114;11.442;2023-02-01T05:39:47;6.13;;;5.13;;
14121;SDS011;7139;48.114;11.442;2023-02-01T05:42:14;6.03;;;5.07;;
14121;SDS011;7139;48.114;11.442;2023-02-01T05:44:40;5.70;;;5.10;;
14121;SDS011;7139;48.114;11.442;2023-02-01T05:47:07;6.30;;;5.47;;
14121;SDS011;7139;48.114;11.442;2023-02-01T05:49:35;6.50;;;5.73;;
14121;SDS011;7139;48.114;11.442;2023-02-01T05:52:02;6.53;;;5.70;;
14121;SDS011;7139;48.114;11.442;2023-02-01T05:54:29;6.13;;;5.30;;
14121;SDS011;7139;48.114;11.442;2023-02-01T05:56:56;6.23;;;5.37;;
14121;SDS011;7139;48.114;11.442;2023-02-01T05:59:23;6.17;;;4.97;;
14121;SDS011;7139;48.114;11.442;2023-02-01T06:01:50;6.23;;;5.33;;
14121;SDS011;7139;48.114;11.442;2023-02-01T06:04:17;5.47;;;4.90;;
14121;SDS011;7139;48.114;11.442;2023-02-01T06:06:45;6.17;;;4.50;;
14121;SDS011;7139;48.114;11.442;2023-02-01T06:09:15;5.63;;;4.63;;
14121;SDS011;7139;48.114;11.442;2023-02-01T06:11:42;6.73;;;5.60;;
14121;SDS011;7139;48.114;11.442;2023-02-01T06:14:08;5.40;;;4.87;;
14121;SDS011;7139;48.114;11.442;2023-02-01T06:16:35;5.70;;;4.93;;
14121;SDS011;7139;48.114;11.442;2023-02-01T06:19:02;5.83;;;5.17;;
14121;SDS011;7139;48.114;11.442;2023-02-01T06:21:29;6.63;;;5.50;;
14121;SDS011;7139;48.114;11.442;2023-02-01T06:23:57;6.93;;;4.97;;
14121;SDS011;7139;48.114;11.442;2023-02-01T06:26:24;6.20;;;5.50;;
14121;SDS011;7139;48.114;11.442;2023-02-01T06:28:51;6.77;;;5.73;;
14121;SDS011;7139;48.114;11.442;2023-02-01T06:31:18;6.57;;;5.37;;
14121;SDS011;7139;48.114;11.442;2023-02-01T06:33:45;5.80;;;4.93;;
14121;SDS011;7139;48.114;11.442;2023-02-01T06:36:12;6.03;;;5.33;;
14121;SDS011;7139;48.114;11.442;2023-02-01T06:38:40;6.67;;;5.33;;
14121;SDS011;7139;48.114;11.442;2023-02-01T06:41:08;5.47;;;4.97;;
14121;SDS011;7139;48.114;11.442;2023-02-01T06:43:36;5.40;;;4.73;;
14121;SDS011;7139;48.114;11.442;2023-02-01T06:46:03;5.43;;;4.80;;
14121;SDS011;7139;48.114;11.442;2023-02-01T06:48:32;6.27;;;5.17;;
14121;SDS011;7139;48.114;11.442;2023-02-01T06:50:59;5.87;;;5.27;;
14121;SDS011;7139;48.114;11.442;2023-02-01T06:53:26;5.67;;;4.87;;
14121;SDS011;7139;48.114;11.442;2023-02-01T06:55:53;5.73;;;5.13;;
14121;SDS011;7139;48.114;11.442;2023-02-01T06:58:22;5.80;;;5.10;;
14121;SDS011;7139;48.114;11.442;2023-02-01T07:00:49;5.83;;;4.80;;
14121;SDS011;7139;48.114;11.442;2023-02-01T07:03:18;5.50;;;4.73;;
14121;SDS011;7139;48.114;11.442;2023-02-01T07:05:45;6.47;;;4.50;;
14121;SDS011;7139;48.114;11.442;2023-02-01T07:08:12;5.07;;;4.50;;
14121;SDS011;7139;48.114;11.442;2023-02-01T07:10:39;6.20;;;4.70;;
14121;SDS011;7139;48.114;11.442;2023-02-01T07:13:05;5.23;;;4.20;;
14121;SDS011;7139;48.114;11.442;2023-02-01T07:15:34;5.90;;;4.60;;
14121;SDS011;7139;48.114;11.442;2023-02-01T07:18:00;5.47;;;4.40;;
14121;SDS011;7139;48.114;11.442;2023-02-01T07:20:27;4.97;;;4.10;;
14121;SDS011;7139;48.114;11.442;2023-02-01T07:22:54;6.00;;;4.37;;
14121;SDS011;7139;48.114;11.442;2023-02-01T07:25:22;4.10;;;3.67;;
14121;SDS011;7139;48.114;11.442;2023-02-01T07:27:48;5.30;;;4.13;;
14121;SDS011;7139;48.114;11.442;2023-02-01T07:30:15;4.20;;;3.80;;
14121;SDS011;7139;48.114;11.442;2023-02-01T07:32:44;4.87;;;4.07;;
14121;SDS011;7139;48.114;11.442;2023-02-01T07:35:11;5.00;;;3.67;;
14121;SDS011;7139;48.114;11.442;2023-02-01T07:37:39;6.60;;;3.80;;
14121;SDS011;7139;48.114;11.442;2023-02-01T07:40:06;4.00;;;3.60;;
14121;SDS011;7139;48.114;11.442;2023-02-01T07:42:33;4.73;;;3.80;;
14121;SDS011;7139;48.114;11.442;2023-02-01T07:45:00;4.07;;;3.67;;
14121;SDS011;7139;48.114;11.442;2023-02-01T07:47:28;3.97;;;3.40;;
14121;SDS011;7139;48.114;11.442;2023-02-01T07:49:56;4.53;;;3.47;;
14121;SDS011;7139;48.114;11.442;2023-02-01T07:52:23;3.83;;;3.03;;
14121;SDS011;7139;48.114;11.442;2023-02-01T07:54:50;4.40;;;3.40;;
14121;SDS011;7139;48.114;11.442;2023-02-01T07:57:17;4.23;;;3.60;;
14121;SDS011;7139;48.114;11.442;2023-02-01T07:59:43;3.30;;;3.00;;
14121;SDS011;7139;48.114;11.442;2023-02-01T08:02:24;3.43;;;2.83;;
14121;SDS011;7139;48.114;11.442;2023-02-01T08:04:51;3.40;;;2.93;;
14121;SDS011;7139;48.114;11.442;2023-02-01T08:07:19;3.93;;;2.90;;
14121;SDS011;7139;48.114;11.442;2023-02-01T08:09:47;3.20;;;2.90;;
14121;SDS011;7139;48.114;11.442;2023-02-01T08:12:13;3.17;;;2.87;;
14121;SDS011;7139;48.114;11.442;2023-02-01T08:14:40;3.60;;;3.13;;
14121;SDS011;7139;48.114;11.442;2023-02-01T08:17:07;2.97;;;2.70;;
14121;SDS011;7139;48.114;11.442;2023-02-01T08:19:34;3.30;;;2.47;;
14121;SDS011;7139;48.114;11.442;2023-02-01T08:22:00;3.30;;;3.00;;
14121;SDS011;7139;48.114;11.442;2023-02-01T08:24:33;3.30;;;3.00;;
14121;SDS011;7139;48.114;11.442;2023-02-01T08:27:00;4.17;;;2.87;;
14121;SDS011;7139;48.114;11.442;2023-02-01T08:29:27;3.53;;;2.93;;
14121;SDS011;7139;48.114;11.442;2023-02-01T08:31:54;2.60;;;2.40;;
14121;SDS011;7139;48.114;11.442;2023-02-01T08:34:21;3.20;;;2.90;;
14121;SDS011;7139;48.114;11.442;2023-02-01T08:36:48;4.30;;;3.10;;
14121;SDS011;7139;48.114;11.442;2023-02-01T08:39:17;3.63;;;2.80;;
14121;SDS011;7139;48.114;11.442;2023-02-01T08:41:45;4.17;;;3.10;;
14121;SDS011;7139;48.114;11.442;2023-02-01T08:44:33;4.23;;;3.40;;
14121;SDS011;7139;48.114;11.442;2023-02-01T08:47:00;3.53;;;3.20;;
14121;SDS011;7139;48.114;11.442;2023-02-01T08:49:27;3.80;;;3.10;;
14121;SDS011;7139;48.114;11.442;2023-02-01T08:51:53;3.00;;;2.70;;
14121;SDS011;7139;48.114;11.442;2023-02-01T08:54:20;3.60;;;2.90;;
14121;SDS011;7139;48.114;11.442;2023-02-01T08:56:49;2.90;;;2.60;;
14121;SDS011;7139;48.114;11.442;2023-02-01T08:59:16;3.40;;;3.00;;
14121;SDS011;7139;48.114;11.442;2023-02-01T09:01:43;4.20;;;3.03;;
14121;SDS011;7139;48.114;11.442;2023-02-01T09:04:09;3.50;;;3.20;;
14121;SDS011;7139;48.114;11.442;2023-02-01T09:06:36;3.87;;;3.30;;
14121;SDS011;7139;48.114;11.442;2023-02-01T09:09:06;3.87;;;3.30;;
14121;SDS011;7139;48.114;11.442;2023-02-01T09:11:33;4.13;;;2.87;;
14121;SDS011;7139;48.114;11.442;2023-02-01T09:14:01;3.60;;;3.30;;
14121;SDS011;7139;48.114;11.442;2023-02-01T09:16:28;3.80;;;3.00;;
14121;SDS011;7139;48.114;11.442;2023-02-01T09:18:55;6.40;;;3.47;;
14121;SDS011;7139;48.114;11.442;2023-02-01T09:21:22;3.37;;;2.70;;
14121;SDS011;7139;48.114;11.442;2023-02-01T09:23:50;3.37;;;3.07;;
14121;SDS011;7139;48.114;11.442;2023-02-01T09:26:17;3.93;;;3.00;;
14121;SDS011;7139;48.114;11.442;2023-02-01T09:28:44;3.27;;;2.97;;
14121;SDS011;7139;48.114;11.442;2023-02-01T09:31:12;3.00;;;2.70;;
14121;SDS011;7139;48.114;11.442;2023-02-01T09:33:39;3.67;;;2.90;;
14121;SDS011;7139;48.114;11.442;2023-02-01T09:36:06;2.70;;;2.50;;
14121;SDS011;7139;48.114;11.442;2023-02-01T09:38:33;2.77;;;2.53;;
14121;SDS011;7139;48.114;11.442;2023-02-01T09:41:00;2.87;;;2.67;;
14121;SDS011;7139;48.114;11.442;2023-02-01T09:43:29;2.90;;;2.60;;
14121;SDS011;7139;48.114;11.442;2023-02-01T09:46:08;3.53;;;3.07;;
14121;SDS011;7139;48.114;11.442;2023-02-01T09:48:45;3.07;;;2.77;;
14121;SDS011;7139;48.114;11.442;2023-02-01T09:51:15;3.27;;;2.70;;
14121;SDS011;7139;48.114;11.442;2023-02-01T09:53:47;3.50;;;2.73;;
14121;SDS011;7139;48.114;11.442;2023-02-01T09:56:21;3.23;;;2.93;;
14121;SDS011;7139;48.114;11.442;2023-02-01T09:58:54;3.30;;;2.97;;
14121;SDS011;7139;48.114;11.442;2023-02-01T10:01:28;3.30;;;3.00;;
14121;SDS011;7139;48.114;11.442;2023-02-01T10:03:56;3.37;;;3.00;;
14121;SDS011;7139;48.114;11.442;2023-02-01T10:06:32;3.57;;;2.93;;
14121;SDS011;7139;48.114;11.442;2023-02-01T10:09:10;3.30;;;3.00;;
14121;SDS011;7139;48.114;11.442;2023-02-01T10:11:51;3.37;;;2.97;;
14121;SDS011;7139;48.114;11.442;2023-02-01T10:14:31;3.63;;;2.77;;
14121;SDS011;7139;48.114;11.442;2023-02-01T10:17:11;3.27;;;2.90;;
14121;SDS011;7139;48.114;11.442;2023-02-01T10:19:44;3.40;;;3.00;;
14121;SDS011;7139;48.114;11.442;2023-02-01T10:24:57;3.50;;;3.00;;
14121;SDS011;7139;48.114;11.442;2023-02-01T10:27:31;3.23;;;2.93;;
14121;SDS011;7139;48.114;11.442;2023-02-01T10:30:04;3.77;;;3.03;;
14121;SDS011;7139;48.114;11.442;2023-02-01T10:32:41;4.27;;;2.73;;
14121;SDS011;7139;48.114;11.442;2023-02-01T10:35:10;4.10;;;3.03;;
14121;SDS011;7139;48.114;11.442;2023-02-01T10:37:48;3.10;;;2.70;;
14121;SDS011;7139;48.114;11.442;2023-02-01T10:40:16;3.90;;;3.00;;
14121;SDS011;7139;48.114;11.442;2023-02-01T10:42:46;3.23;;;2.93;;
14121;SDS011;7139;48.114;11.442;2023-02-01T10:45:15;5.63;;;3.23;;
14121;SDS011;7139;48.114;11.442;2023-02-01T10:47:47;3.03;;;2.70;;
14121;SDS011;7139;48.114;11.442;2023-02-01T10:50:17;4.10;;;3.40;;
14121;SDS011;7139;48.114;11.442;2023-02-01T10:52:54;3.30;;;3.00;;
14121;SDS011;7139;48.114;11.442;2023-02-01T10:55:25;4.70;;;3.83;;
14121;SDS011;7139;48.114;11.442;2023-02-01T10:57:57;3.40;;;3.00;;
14121;SDS011;7139;48.114;11.442;2023-02-01T11:00:25;3.37;;;3.00;;
14121;SDS011;7139;48.114;11.442;2023-02-01T11:05:45;3.80;;;3.40;;
14121;SDS011;7139;48.114;11.442;2023-02-01T11:08:13;4.10;;;3.60;;
14121;SDS011;7139;48.114;11.442;2023-02-01T11:10:42;4.53;;;3.67;;
14121;SDS011;7139;48.114;11.442;2023-02-01T11:13:11;3.57;;;3.20;;
14121;SDS011;7139;48.114;11.442;2023-02-01T11:15:43;4.83;;;3.50;;
14121;SDS011;7139;48.114;11.442;2023-02-01T11:18:17;3.80;;;3.20;;
14121;SDS011;7139;48.114;11.442;2023-02-01T11:20:46;6.00;;;3.90;;
14121;SDS011;7139;48.114;11.442;2023-02-01T11:23:15;3.33;;;3.03;;
14121;SDS011;7139;48.114;11.442;2023-02-01T11:25:49;4.07;;;3.67;;
14121;SDS011;7139;48.114;11.442;2023-02-01T11:28:20;4.20;;;3.23;;
14121;SDS011;7139;48.114;11.442;2023-02-01T11:30:49;3.23;;;2.93;;
14121;SDS011;7139;48.114;11.442;2023-02-01T11:33:22;4.13;;;3.33;;
14121;SDS011;7139;48.114;11.442;2023-02-01T11:35:55;4.10;;;3.57;;
14121;SDS011;7139;48.114;11.442;2023-02-01T11:38:25;3.93;;;3.50;;
14121;SDS011;7139;48.114;11.442;2023-02-01T11:40:53;5.53;;;3.20;;
14121;SDS011;7139;48.114;11.442;2023-02-01T11:43:23;4.00;;;3.50;;
14121;SDS011;7139;48.114;11.442;2023-02-01T11:45:55;3.73;;;3.33;;
14121;SDS011;7139;48.114;11.442;2023-02-01T11:48:25;4.33;;;3.27;;
14121;SDS011;7139;48.114;11.442;2023-02-01T11:50:56;4.67;;;3.60;;
14121;SDS011;7139;48.114;11.442;2023-02-01T11:53:38;4.27;;;3.43;;
14121;SDS011;7139;48.114;11.442;2023-02-01T11:56:19;4.00;;;3.60;;
14121;SDS011;7139;48.114;11.442;2023-02-01T11:58:58;4.40;;;4.00;;
14121;SDS011;7139;48.114;11.442;2023-02-01T12:01:39;5.07;;;4.00;;
14121;SDS011;7139;48.114;11.442;2023-02-01T12:07:19;4.43;;;3.90;;
14121;SDS011;7139;48.114;11.442;2023-02-01T12:09:53;5.25;;;3.95;;
14121;SDS011;7139;48.114;11.442;2023-02-01T12:12:31;4.93;;;3.90;;
14121;SDS011;7139;48.114;11.442;2023-02-01T12:15:11;4.13;;;3.60;;
14121;SDS011;7139;48.114;11.442;2023-02-01T12:18:01;5.30;;;3.73;;
14121;SDS011;7139;48.114;11.442;2023-02-01T12:20:52;4.73;;;3.27;;
14121;SDS011;7139;48.114;11.442;2023-02-01T12:23:41;7.27;;;3.73;;
14121;SDS011;7139;48.114;11.442;2023-02-01T12:26:27;4.47;;;3.23;;
14121;SDS011;7139;48.114;11.442;2023-02-01T12:32:08;6.47;;;3.77;;
14121;SDS011;7139;48.114;11.442;2023-02-01T12:37:47;4.43;;;3.30;;
14121;SDS011;7139;48.114;11.442;2023-02-01T12:40:28;6.77;;;4.00;;
14121;SDS011;7139;48.114;11.442;2023-02-01T12:43:07;4.43;;;3.30;;
14121;SDS011;7139;48.114;11.442;2023-02-01T12:45:40;7.47;;;3.70;;
14121;SDS011;7139;48.114;11.442;2023-02-01T12:48:16;5.20;;;3.33;;
14121;SDS011;7139;48.114;11.442;2023-02-01T12:50:52;7.10;;;3.43;;
14121;SDS011;7139;48.114;11.442;2023-02-01T12:53:25;5.30;;;3.70;;
14121;SDS011;7139;48.114;11.442;2023-02-01T12:56:01;6.67;;;3.20;;
14121;SDS011;7139;48.114;11.442;2023-02-01T12:58:32;5.17;;;3.10;;
14121;SDS011;7139;48.114;11.442;2023-02-01T13:01:09;4.63;;;3.13;;
14121;SDS011;7139;48.114;11.442;2023-02-01T13:03:39;3.60;;;3.10;;
14121;SDS011;7139;48.114;11.442;2023-02-01T13:06:11;5.27;;;3.40;;
14121;SDS011;7139;48.114;11.442;2023-02-01T13:08:43;6.33;;;3.53;;
14121;SDS011;7139;48.114;11.442;2023-02-01T13:11:16;3.20;;;2.90;;
14121;SDS011;7139;48.114;11.442;2023-02-01T13:13:48;3.47;;;2.83;;
14121;SDS011;7139;48.114;11.442;2023-02-01T13:16:23;4.23;;;3.33;;
14121;SDS011;7139;48.114;11.442;2023-02-01T13:18:55;3.37;;;3.07;;
14121;SDS011;7139;48.114;11.442;2023-02-01T13:21:27;5.73;;;3.57;;
14121;SDS011;7139;48.114;11.442;2023-02-01T13:23:58;5.07;;;3.63;;
14121;SDS011;7139;48.114;11.442;2023-02-01T13:26:26;5.23;;;3.50;;
14121;SDS011;7139;48.114;11.442;2023-02-01T13:28:58;4.20;;;3.30;;
14121;SDS011;7139;48.114;11.442;2023-02-01T13:31:33;4.03;;;3.37;;
14121;SDS011;7139;48.114;11.442;2023-02-01T13:37:33;3.90;;;3.30;;
14121;SDS011;7139;48.114;11.442;2023-02-01T13:40:17;8.50;;;6.27;;
14121;SDS011;7139;48.114;11.442;2023-02-01T13:43:07;5.07;;;3.37;;
14121;SDS011;7139;48.114;11.442;2023-02-01T13:45:42;5.10;;;4.30;;
14121;SDS011;7139;48.114;11.442;2023-02-01T13:48:17;6.40;;;5.70;;
14121;SDS011;7139;48.114;11.442;2023-02-01T13:50:49;6.30;;;5.50;;
14121;SDS011;7139;48.114;11.442;2023-02-01T13:53:18;5.97;;;4.30;;
14121;SDS011;7139;48.114;11.442;2023-02-01T13:55:54;5.47;;;3.90;;
14121;SDS011;7139;48.114;11.442;2023-02-01T13:58:30;3.70;;;3.17;;
14121;SDS011;7139;48.114;11.442;2023-02-01T14:07:19;4.93;;;3.30;;
14121;SDS011;7139;48.114;11.442;2023-02-01T14:09:50;4.63;;;3.17;;
14121;SDS011;7139;48.114;11.442;2023-02-01T14:15:23;3.47;;;3.13;;
14121;SDS011;7139;48.114;11.442;2023-02-01T14:17:58;4.33;;;3.00;;
14121;SDS011;7139;48.114;11.442;2023-02-01T14:23:21;4.30;;;3.40;;
14121;SDS011;7139;48.114;11.442;2023-02-01T14:26:03;5.97;;;2.90;;
14121;SDS011;7139;48.114;11.442;2023-02-01T14:28:50;3.67;;;2.80;;
14121;SDS011;7139;48.114;11.442;2023-02-01T14:31:35;3.43;;;3.00;;
14121;SDS011;7139;48.114;11.442;2023-02-01T14:34:14;6.03;;;2.60;;
14121;SDS011;7139;48.114;11.442;2023-02-01T14:36:47;4.70;;;2.90;;
14121;SDS011;7139;48.114;11.442;2023-02-01T14:39:24;4.33;;;2.90;;
14121;SDS011;7139;48.114;11.442;2023-02-01T14:42:01;4.07;;;3.07;;
14121;SDS011;7139;48.114;11.442;2023-02-01T14:44:38;5.20;;;3.13;;
14121;SDS011;7139;48.114;11.442;2023-02-01T14:47:11;3.47;;;2.80;;
14121;SDS011;7139;48.114;11.442;2023-02-01T14:50:03;5.07;;;2.90;;
14121;SDS011;7139;48.114;11.442;2023-02-01T14:53:01;4.60;;;3.00;;
14121;SDS011;7139;48.114;11.442;2023-02-01T14:55:45;4.40;;;2.60;;
14121;SDS011;7139;48.114;11.442;2023-02-01T14:58:16;4.57;;;2.97;;
14121;SDS011;7139;48.114;11.442;2023-02-01T15:00:47;4.77;;;3.00;;
14121;SDS011;7139;48.114;11.442;2023-02-01T15:03:21;3.47;;;2.53;;
14121;SDS011;7139;48.114;11.442;2023-02-01T15:06:03;2.70;;;2.50;;
14121;SDS011;7139;48.114;11.442;2023-02-01T15:08:39;5.57;;;2.63;;
14121;SDS011;7139;48.114;11.442;2023-02-01T15:11:08;3.77;;;2.63;;
14121;SDS011;7139;48.114;11.442;2023-02-01T15:13:39;3.90;;;2.70;;
14121;SDS011;7139;48.114;11.442;2023-02-01T15:16:14;3.30;;;3.00;;
14121;SDS011;7139;48.114;11.442;2023-02-01T15:18:44;3.77;;;2.90;;
14121;SDS011;7139;48.114;11.442;2023-02-01T15:21:15;6.87;;;2.87;;
14121;SDS011;7139;48.114;11.442;2023-02-01T15:23:44;4.30;;;2.30;;
14121;SDS011;7139;48.114;11.442;2023-02-01T15:26:24;4.27;;;2.80;;
14121;SDS011;7139;48.114;11.442;2023-02-01T15:28:51;3.27;;;2.50;;
14121;SDS011;7139;48.114;11.442;2023-02-01T15:31:30;5.20;;;2.63;;
14121;SDS011;7139;48.114;11.442;2023-02-01T15:34:00;4.37;;;2.73;;
14121;SDS011;7139;48.114;11.442;2023-02-01T15:36:27;5.03;;;2.93;;
14121;SDS011;7139;48.114;11.442;2023-02-01T15:39:15;5.63;;;2.73;;
14121;SDS011;7139;48.114;11.442;2023-02-01T15:41:48;6.33;;;3.10;;
14121;SDS011;7139;48.114;11.442;2023-02-01T15:44:18;5.03;;;2.77;;
14121;SDS011;7139;48.114;11.442;2023-02-01T15:46:48;4.27;;;3.00;;
14121;SDS011;7139;48.114;11.442;2023-02-01T15:49:19;3.87;;;2.83;;